sensor_id;sensor_type;location;lat;lon;timestamp;P1;durP1;ratioP1;P2;durP2;ratioP2
79005;SDS011;69202;45.498;-73.582;2023-05-10T00:00:54;7.40;;;1.67;;
79005;SDS011;69202;45.498;-73.582;2023-05-10T00:03:19;3.55;;;1.23;;
79005;SDS011;69202;45.498;-73.582;2023-05-10T00:05:45;5.05;;;1.77;;
79005;SDS011;69202;45.498;-73.582;2023-05-10T00:08:11;7.82;;;2.05;;
79005;SDS011;69202;45.498;-73.582;2023-05-10T00:10:37;7.05;;;1.50;;
79005;SDS011;69202;45.498;-73.582;2023-05-10T00:13:03;7.53;;;1.90;;
79005;SDS011;69202;45.498;-73.582;2023-05-10T00:15:29;5.70;;;1.60;;
79005;SDS011;69202;45.498;-73.582;2023-05-10T00:17:59;6.28;;;1.70;;
79005;SDS011;69202;45.498;-73.582;2023-05-10T00:20:25;8.02;;;1.70;;
79005;SDS011;69202;45.498;-73.582;2023-05-10T00:22:51;4.68;;;1.67;;
79005;SDS011;69202;45.498;-73.582;2023-05-10T00:25:17;7.20;;;1.73;;
79005;SDS011;69202;45.498;-73.582;2023-05-10T00:27:43;10.63;;;1.83;;
79005;SDS011;69202;45.498;-73.582;2023-05-10T00:30:09;4.82;;;1.67;;
79005;SDS011;69202;45.498;-73.582;2023-05-10T00:32:35;5.40;;;1.58;;
79005;SDS011;69202;45.498;-73.582;2023-05-10T00:35:01;6.50;;;1.50;;
79005;SDS011;69202;45.498;-73.582;2023-05-10T00:37:27;4.82;;;1.70;;
79005;SDS011;69202;45.498;-73.582;2023-05-10T00:39:53;3.20;;;1.73;;
79005;SDS011;69202;45.498;-73.582;2023-05-10T00:42:19;10.48;;;2.00;;
79005;SDS011;69202;45.498;-73.582;2023-05-10T00:44:45;6.63;;;1.90;;
79005;SDS011;69202;45.498;-73.582;2023-05-10T00:47:11;5.72;;;1.75;;
79005;SDS011;69202;45.498;-73.582;2023-05-10T00:49:37;9.95;;;1.65;;
79005;SDS011;69202;45.498;-73.582;2023-05-10T00:52:04;4.55;;;1.35;;
79005;SDS011;69202;45.498;-73.582;2023-05-10T00:54:31;8.48;;;2.00;;
79005;SDS011;69202;45.498;-73.582;2023-05-10T00:56:57;8.10;;;1.83;;
79005;SDS011;69202;45.498;-73.582;2023-05-10T00:59:32;5.95;;;1.75;;
79005;SDS011;69202;45.498;-73.582;2023-05-10T01:02:01;5.38;;;1.70;;
79005;SDS011;69202;45.498;-73.582;2023-05-10T01:04:28;7.25;;;1.92;;
79005;SDS011;69202;45.498;-73.582;2023-05-10T01:06:54;10.20;;;2.45;;
79005;SDS011;69202;45.498;-73.582;2023-05-10T01:09:20;13.82;;;2.42;;
79005;SDS011;69202;45.498;-73.582;2023-05-10T01:11:47;8.02;;;2.40;;
79005;SDS011;69202;45.498;-73.582;2023-05-10T01:14:14;10.00;;;3.25;;
79005;SDS011;69202;45.498;-73.582;2023-05-10T01:16:43;4.88;;;1.75;;
79005;SDS011;69202;45.498;-73.582;2023-05-10T01:19:18;5.93;;;1.92;;
79005;SDS011;69202;45.498;-73.582;2023-05-10T01:33:33;8.57;;;2.08;;
79005;SDS011;69202;45.498;-73.582;2023-05-10T01:41:55;6.43;;;1.92;;
79005;SDS011;69202;45.498;-73.582;2023-05-10T01:45:02;6.45;;;1.83;;
79005;SDS011;69202;45.498;-73.582;2023-05-10T01:47:35;4.63;;;1.92;;
79005;SDS011;69202;45.498;-73.582;2023-05-10T01:50:06;10.90;;;1.63;;
79005;SDS011;69202;45.498;-73.582;2023-05-10T01:52:42;6.32;;;1.77;;
79005;SDS011;69202;45.498;-73.582;2023-05-10T01:55:14;6.65;;;2.03;;
79005;SDS011;69202;45.498;-73.582;2023-05-10T01:57:42;4.68;;;1.55;;
79005;SDS011;69202;45.498;-73.582;2023-05-10T02:00:10;5.75;;;1.60;;
79005;SDS011;69202;45.498;-73.582;2023-05-10T02:02:37;8.65;;;2.00;;
79005;SDS011;69202;45.498;-73.582;2023-05-10T02:05:07;7.50;;;1.73;;
79005;SDS011;69202;45.498;-73.582;2023-05-10T02:07:37;7.70;;;1.83;;
79005;SDS011;69202;45.498;-73.582;2023-05-10T02:10:06;5.30;;;1.88;;
79005;SDS011;69202;45.498;-73.582;2023-05-10T02:12:39;11.05;;;2.05;;
79005;SDS011;69202;45.498;-73.582;2023-05-10T02:15:07;8.93;;;1.90;;
79005;SDS011;69202;45.498;-73.582;2023-05-10T02:17:34;6.47;;;2.40;;
79005;SDS011;69202;45.498;-73.582;2023-05-10T02:20:02;9.25;;;2.58;;
79005;SDS011;69202;45.498;-73.582;2023-05-10T02:22:30;6.63;;;2.40;;
79005;SDS011;69202;45.498;-73.582;2023-05-10T02:24:58;17.02;;;2.70;;
79005;SDS011;69202;45.498;-73.582;2023-05-10T02:27:25;6.75;;;2.30;;
79005;SDS011;69202;45.498;-73.582;2023-05-10T02:29:53;10.05;;;2.67;;
79005;SDS011;69202;45.498;-73.582;2023-05-10T02:32:21;12.05;;;3.10;;
79005;SDS011;69202;45.498;-73.582;2023-05-10T02:34:47;10.40;;;2.30;;
79005;SDS011;69202;45.498;-73.582;2023-05-10T02:37:18;15.70;;;3.72;;
79005;SDS011;69202;45.498;-73.582;2023-05-10T02:39:46;6.07;;;3.10;;
79005;SDS011;69202;45.498;-73.582;2023-05-10T02:42:18;10.32;;;2.85;;
79005;SDS011;69202;45.498;-73.582;2023-05-10T02:44:45;8.55;;;2.65;;
79005;SDS011;69202;45.498;-73.582;2023-05-10T02:47:14;9.15;;;2.42;;
79005;SDS011;69202;45.498;-73.582;2023-05-10T02:49:40;10.13;;;2.95;;
79005;SDS011;69202;45.498;-73.582;2023-05-10T02:52:06;7.78;;;2.83;;
79005;SDS011;69202;45.498;-73.582;2023-05-10T02:54:45;10.80;;;2.95;;
79005;SDS011;69202;45.498;-73.582;2023-05-10T02:57:16;9.02;;;2.70;;
79005;SDS011;69202;45.498;-73.582;2023-05-10T02:59:46;15.55;;;2.22;;
79005;SDS011;69202;45.498;-73.582;2023-05-10T03:02:12;7.28;;;2.30;;
79005;SDS011;69202;45.498;-73.582;2023-05-10T03:04:38;10.70;;;2.78;;
79005;SDS011;69202;45.498;-73.582;2023-05-10T03:07:04;11.10;;;2.60;;
79005;SDS011;69202;45.498;-73.582;2023-05-10T03:09:31;8.50;;;2.10;;
79005;SDS011;69202;45.498;-73.582;2023-05-10T03:17:45;15.07;;;2.45;;
79005;SDS011;69202;45.498;-73.582;2023-05-10T03:20:30;13.05;;;2.67;;
79005;SDS011;69202;45.498;-73.582;2023-05-10T03:23:06;11.05;;;2.70;;
79005;SDS011;69202;45.498;-73.582;2023-05-10T03:25:45;8.88;;;2.30;;
79005;SDS011;69202;45.498;-73.582;2023-05-10T03:28:13;12.45;;;2.38;;
79005;SDS011;69202;45.498;-73.582;2023-05-10T03:30:41;10.13;;;2.67;;
79005;SDS011;69202;45.498;-73.582;2023-05-10T03:33:08;15.40;;;3.22;;
79005;SDS011;69202;45.498;-73.582;2023-05-10T03:35:34;10.43;;;2.40;;
79005;SDS011;69202;45.498;-73.582;2023-05-10T03:38:00;11.07;;;2.67;;
79005;SDS011;69202;45.498;-73.582;2023-05-10T03:40:26;9.38;;;2.20;;
79005;SDS011;69202;45.498;-73.582;2023-05-10T03:42:57;10.30;;;2.53;;
79005;SDS011;69202;45.498;-73.582;2023-05-10T03:45:24;11.48;;;2.65;;
79005;SDS011;69202;45.498;-73.582;2023-05-10T03:47:50;13.20;;;2.53;;
79005;SDS011;69202;45.498;-73.582;2023-05-10T03:50:16;12.85;;;2.47;;
79005;SDS011;69202;45.498;-73.582;2023-05-10T03:52:43;7.55;;;1.98;;
79005;SDS011;69202;45.498;-73.582;2023-05-10T03:55:09;15.60;;;2.38;;
79005;SDS011;69202;45.498;-73.582;2023-05-10T03:57:35;13.48;;;2.33;;
79005;SDS011;69202;45.498;-73.582;2023-05-10T04:00:02;17.10;;;2.55;;
79005;SDS011;69202;45.498;-73.582;2023-05-10T04:02:29;10.57;;;2.42;;
79005;SDS011;69202;45.498;-73.582;2023-05-10T04:04:55;5.43;;;2.38;;
79005;SDS011;69202;45.498;-73.582;2023-05-10T04:07:21;16.23;;;2.70;;
79005;SDS011;69202;45.498;-73.582;2023-05-10T04:09:47;8.75;;;2.28;;
79005;SDS011;69202;45.498;-73.582;2023-05-10T04:12:13;12.32;;;2.42;;
79005;SDS011;69202;45.498;-73.582;2023-05-10T04:14:39;6.00;;;2.22;;
79005;SDS011;69202;45.498;-73.582;2023-05-10T04:17:05;8.82;;;2.15;;
79005;SDS011;69202;45.498;-73.582;2023-05-10T04:19:31;9.43;;;2.20;;
79005;SDS011;69202;45.498;-73.582;2023-05-10T04:21:57;9.65;;;2.08;;
79005;SDS011;69202;45.498;-73.582;2023-05-10T04:24:24;4.95;;;1.83;;
79005;SDS011;69202;45.498;-73.582;2023-05-10T04:26:50;5.13;;;1.70;;
79005;SDS011;69202;45.498;-73.582;2023-05-10T04:29:16;5.20;;;1.80;;
79005;SDS011;69202;45.498;-73.582;2023-05-10T04:31:42;5.65;;;1.80;;
79005;SDS011;69202;45.498;-73.582;2023-05-10T04:34:08;4.53;;;1.45;;
79005;SDS011;69202;45.498;-73.582;2023-05-10T04:36:34;5.65;;;2.30;;
79005;SDS011;69202;45.498;-73.582;2023-05-10T04:39:02;4.95;;;1.50;;
79005;SDS011;69202;45.498;-73.582;2023-05-10T04:41:29;4.35;;;1.60;;
79005;SDS011;69202;45.498;-73.582;2023-05-10T04:43:55;6.55;;;1.95;;
79005;SDS011;69202;45.498;-73.582;2023-05-10T04:46:21;4.43;;;1.38;;
79005;SDS011;69202;45.498;-73.582;2023-05-10T04:48:47;6.38;;;1.83;;
79005;SDS011;69202;45.498;-73.582;2023-05-10T04:51:13;3.25;;;1.60;;
79005;SDS011;69202;45.498;-73.582;2023-05-10T04:53:39;4.13;;;1.70;;
79005;SDS011;69202;45.498;-73.582;2023-05-10T04:56:05;4.50;;;1.70;;
79005;SDS011;69202;45.498;-73.582;2023-05-10T04:58:31;5.85;;;1.98;;
79005;SDS011;69202;45.498;-73.582;2023-05-10T05:01:04;7.50;;;1.92;;
79005;SDS011;69202;45.498;-73.582;2023-05-10T05:03:32;5.82;;;2.08;;
79005;SDS011;69202;45.498;-73.582;2023-05-10T05:05:58;5.47;;;1.70;;
79005;SDS011;69202;45.498;-73.582;2023-05-10T05:08:24;5.63;;;2.03;;
79005;SDS011;69202;45.498;-73.582;2023-05-10T05:10:50;6.65;;;2.00;;
79005;SDS011;69202;45.498;-73.582;2023-05-10T05:13:16;5.82;;;1.90;;
79005;SDS011;69202;45.498;-73.582;2023-05-10T05:15:42;9.63;;;3.28;;
79005;SDS011;69202;45.498;-73.582;2023-05-10T05:18:08;4.03;;;1.80;;
79005;SDS011;69202;45.498;-73.582;2023-05-10T05:20:33;8.38;;;1.73;;
79005;SDS011;69202;45.498;-73.582;2023-05-10T05:23:00;3.80;;;1.73;;
79005;SDS011;69202;45.498;-73.582;2023-05-10T05:25:26;9.55;;;2.20;;
79005;SDS011;69202;45.498;-73.582;2023-05-10T05:27:52;11.27;;;2.20;;
79005;SDS011;69202;45.498;-73.582;2023-05-10T05:30:18;5.05;;;1.98;;
79005;SDS011;69202;45.498;-73.582;2023-05-10T05:32:43;10.55;;;1.70;;
79005;SDS011;69202;45.498;-73.582;2023-05-10T05:35:09;10.88;;;2.65;;
79005;SDS011;69202;45.498;-73.582;2023-05-10T05:37:36;14.98;;;2.42;;
79005;SDS011;69202;45.498;-73.582;2023-05-10T05:40:02;21.38;;;2.35;;
79005;SDS011;69202;45.498;-73.582;2023-05-10T05:42:28;8.40;;;2.50;;
79005;SDS011;69202;45.498;-73.582;2023-05-10T05:44:56;8.23;;;1.80;;
79005;SDS011;69202;45.498;-73.582;2023-05-10T05:47:22;10.05;;;1.63;;
79005;SDS011;69202;45.498;-73.582;2023-05-10T05:49:48;6.32;;;1.80;;
79005;SDS011;69202;45.498;-73.582;2023-05-10T05:52:14;11.75;;;1.75;;
79005;SDS011;69202;45.498;-73.582;2023-05-10T05:54:40;11.38;;;1.77;;
79005;SDS011;69202;45.498;-73.582;2023-05-10T05:57:06;7.43;;;2.10;;
79005;SDS011;69202;45.498;-73.582;2023-05-10T05:59:32;12.88;;;2.13;;
79005;SDS011;69202;45.498;-73.582;2023-05-10T06:01:58;3.50;;;1.88;;
79005;SDS011;69202;45.498;-73.582;2023-05-10T06:04:25;6.28;;;1.83;;
79005;SDS011;69202;45.498;-73.582;2023-05-10T06:06:51;3.75;;;1.65;;
79005;SDS011;69202;45.498;-73.582;2023-05-10T06:09:17;4.60;;;1.40;;
79005;SDS011;69202;45.498;-73.582;2023-05-10T06:11:43;4.43;;;1.83;;
79005;SDS011;69202;45.498;-73.582;2023-05-10T06:14:09;5.10;;;1.60;;
79005;SDS011;69202;45.498;-73.582;2023-05-10T06:16:35;6.38;;;1.80;;
79005;SDS011;69202;45.498;-73.582;2023-05-10T06:19:01;3.20;;;1.67;;
79005;SDS011;69202;45.498;-73.582;2023-05-10T06:21:28;3.92;;;1.88;;
79005;SDS011;69202;45.498;-73.582;2023-05-10T06:23:54;6.85;;;1.80;;
79005;SDS011;69202;45.498;-73.582;2023-05-10T06:26:19;3.33;;;1.63;;
79005;SDS011;69202;45.498;-73.582;2023-05-10T06:28:46;4.57;;;1.80;;
79005;SDS011;69202;45.498;-73.582;2023-05-10T06:31:11;4.80;;;1.90;;
79005;SDS011;69202;45.498;-73.582;2023-05-10T06:33:37;2.92;;;1.85;;
79005;SDS011;69202;45.498;-73.582;2023-05-10T06:36:03;3.70;;;1.70;;
79005;SDS011;69202;45.498;-73.582;2023-05-10T06:38:29;7.18;;;1.88;;
79005;SDS011;69202;45.498;-73.582;2023-05-10T06:40:55;5.00;;;1.77;;
79005;SDS011;69202;45.498;-73.582;2023-05-10T06:43:22;5.78;;;2.38;;
79005;SDS011;69202;45.498;-73.582;2023-05-10T06:45:48;8.35;;;2.20;;
79005;SDS011;69202;45.498;-73.582;2023-05-10T06:48:14;13.35;;;2.17;;
79005;SDS011;69202;45.498;-73.582;2023-05-10T06:50:39;10.48;;;2.28;;
79005;SDS011;69202;45.498;-73.582;2023-05-10T06:53:05;6.15;;;1.95;;
79005;SDS011;69202;45.498;-73.582;2023-05-10T06:55:31;8.25;;;2.20;;
79005;SDS011;69202;45.498;-73.582;2023-05-10T06:57:57;9.10;;;2.08;;
79005;SDS011;69202;45.498;-73.582;2023-05-10T07:00:23;6.05;;;1.73;;
79005;SDS011;69202;45.498;-73.582;2023-05-10T07:02:49;5.88;;;2.28;;
79005;SDS011;69202;45.498;-73.582;2023-05-10T07:05:16;5.65;;;1.98;;
79005;SDS011;69202;45.498;-73.582;2023-05-10T07:07:42;8.90;;;1.90;;
79005;SDS011;69202;45.498;-73.582;2023-05-10T07:10:08;4.95;;;2.22;;
79005;SDS011;69202;45.498;-73.582;2023-05-10T07:12:34;6.40;;;1.88;;
79005;SDS011;69202;45.498;-73.582;2023-05-10T07:15:00;7.18;;;2.13;;
79005;SDS011;69202;45.498;-73.582;2023-05-10T07:17:26;9.45;;;2.22;;
79005;SDS011;69202;45.498;-73.582;2023-05-10T07:19:52;7.32;;;2.33;;
79005;SDS011;69202;45.498;-73.582;2023-05-10T07:22:18;5.85;;;2.38;;
79005;SDS011;69202;45.498;-73.582;2023-05-10T07:24:44;7.07;;;2.30;;
79005;SDS011;69202;45.498;-73.582;2023-05-10T07:27:11;5.18;;;2.50;;
79005;SDS011;69202;45.498;-73.582;2023-05-10T07:29:38;9.57;;;2.45;;
79005;SDS011;69202;45.498;-73.582;2023-05-10T07:32:04;7.20;;;2.67;;
79005;SDS011;69202;45.498;-73.582;2023-05-10T07:34:31;9.15;;;2.67;;
79005;SDS011;69202;45.498;-73.582;2023-05-10T07:37:00;5.57;;;2.00;;
79005;SDS011;69202;45.498;-73.582;2023-05-10T07:39:27;9.70;;;2.10;;
79005;SDS011;69202;45.498;-73.582;2023-05-10T07:41:53;8.13;;;2.30;;
79005;SDS011;69202;45.498;-73.582;2023-05-10T07:44:20;9.43;;;1.70;;
79005;SDS011;69202;45.498;-73.582;2023-05-10T07:46:46;5.18;;;2.00;;
79005;SDS011;69202;45.498;-73.582;2023-05-10T07:49:13;12.73;;;2.20;;
79005;SDS011;69202;45.498;-73.582;2023-05-10T07:51:39;6.30;;;1.80;;
79005;SDS011;69202;45.498;-73.582;2023-05-10T07:54:05;5.68;;;2.05;;
79005;SDS011;69202;45.498;-73.582;2023-05-10T07:56:31;4.93;;;2.05;;
79005;SDS011;69202;45.498;-73.582;2023-05-10T07:58:58;8.55;;;2.33;;
79005;SDS011;69202;45.498;-73.582;2023-05-10T08:01:25;2.10;;;1.70;;
79005;SDS011;69202;45.498;-73.582;2023-05-10T08:03:52;4.63;;;2.22;;
79005;SDS011;69202;45.498;-73.582;2023-05-10T08:06:19;4.13;;;2.10;;
79005;SDS011;69202;45.498;-73.582;2023-05-10T08:08:46;4.32;;;2.10;;
79005;SDS011;69202;45.498;-73.582;2023-05-10T08:11:17;7.38;;;2.83;;
79005;SDS011;69202;45.498;-73.582;2023-05-10T08:13:46;4.13;;;2.20;;
79005;SDS011;69202;45.498;-73.582;2023-05-10T08:16:13;4.60;;;2.13;;
79005;SDS011;69202;45.498;-73.582;2023-05-10T08:18:40;7.03;;;2.22;;
79005;SDS011;69202;45.498;-73.582;2023-05-10T08:21:06;6.78;;;2.38;;
79005;SDS011;69202;45.498;-73.582;2023-05-10T08:23:35;10.02;;;2.67;;
79005;SDS011;69202;45.498;-73.582;2023-05-10T08:26:01;6.43;;;2.20;;
79005;SDS011;69202;45.498;-73.582;2023-05-10T08:28:27;8.20;;;2.70;;
79005;SDS011;69202;45.498;-73.582;2023-05-10T08:30:53;9.80;;;2.75;;
79005;SDS011;69202;45.498;-73.582;2023-05-10T08:33:19;5.85;;;2.60;;
79005;SDS011;69202;45.498;-73.582;2023-05-10T08:35:45;7.93;;;2.60;;
79005;SDS011;69202;45.498;-73.582;2023-05-10T08:38:10;5.72;;;2.72;;
79005;SDS011;69202;45.498;-73.582;2023-05-10T08:40:38;6.13;;;2.45;;
79005;SDS011;69202;45.498;-73.582;2023-05-10T08:43:08;4.65;;;2.35;;
79005;SDS011;69202;45.498;-73.582;2023-05-10T08:45:41;3.95;;;2.20;;
79005;SDS011;69202;45.498;-73.582;2023-05-10T08:48:09;5.43;;;2.50;;
79005;SDS011;69202;45.498;-73.582;2023-05-10T08:50:36;4.68;;;2.20;;
79005;SDS011;69202;45.498;-73.582;2023-05-10T08:53:06;2.63;;;1.80;;
79005;SDS011;69202;45.498;-73.582;2023-05-10T08:55:35;3.97;;;2.30;;
79005;SDS011;69202;45.498;-73.582;2023-05-10T08:58:05;5.18;;;2.15;;
79005;SDS011;69202;45.498;-73.582;2023-05-10T09:00:32;4.30;;;2.00;;
79005;SDS011;69202;45.498;-73.582;2023-05-10T09:02:58;7.80;;;2.47;;
79005;SDS011;69202;45.498;-73.582;2023-05-10T09:05:25;6.43;;;2.15;;
79005;SDS011;69202;45.498;-73.582;2023-05-10T09:07:51;6.78;;;2.47;;
79005;SDS011;69202;45.498;-73.582;2023-05-10T09:10:17;5.15;;;2.30;;
79005;SDS011;69202;45.498;-73.582;2023-05-10T09:12:44;5.70;;;2.50;;
79005;SDS011;69202;45.498;-73.582;2023-05-10T09:15:11;5.93;;;3.00;;
79005;SDS011;69202;45.498;-73.582;2023-05-10T09:17:40;5.53;;;2.55;;
79005;SDS011;69202;45.498;-73.582;2023-05-10T09:20:07;3.58;;;2.22;;
79005;SDS011;69202;45.498;-73.582;2023-05-10T09:22:34;3.03;;;2.08;;
79005;SDS011;69202;45.498;-73.582;2023-05-10T09:25:10;5.53;;;2.25;;
79005;SDS011;69202;45.498;-73.582;2023-05-10T09:27:38;5.47;;;2.40;;
79005;SDS011;69202;45.498;-73.582;2023-05-10T09:30:05;3.92;;;1.98;;
79005;SDS011;69202;45.498;-73.582;2023-05-10T09:35:16;8.18;;;2.25;;
79005;SDS011;69202;45.498;-73.582;2023-05-10T09:37:44;7.07;;;2.50;;
79005;SDS011;69202;45.498;-73.582;2023-05-10T09:40:14;3.17;;;1.80;;
79005;SDS011;69202;45.498;-73.582;2023-05-10T09:42:51;6.07;;;2.17;;
79005;SDS011;69202;45.498;-73.582;2023-05-10T09:45:20;9.27;;;2.42;;
79005;SDS011;69202;45.498;-73.582;2023-05-10T09:47:49;6.45;;;2.20;;
79005;SDS011;69202;45.498;-73.582;2023-05-10T09:50:15;6.80;;;2.42;;
79005;SDS011;69202;45.498;-73.582;2023-05-10T09:52:46;7.35;;;2.30;;
79005;SDS011;69202;45.498;-73.582;2023-05-10T09:55:20;4.53;;;2.63;;
79005;SDS011;69202;45.498;-73.582;2023-05-10T09:57:48;7.15;;;2.35;;
79005;SDS011;69202;45.498;-73.582;2023-05-10T10:00:18;6.47;;;2.42;;
79005;SDS011;69202;45.498;-73.582;2023-05-10T10:02:48;7.70;;;2.38;;
79005;SDS011;69202;45.498;-73.582;2023-05-10T10:05:20;6.20;;;2.63;;
79005;SDS011;69202;45.498;-73.582;2023-05-10T10:07:46;6.20;;;2.30;;
79005;SDS011;69202;45.498;-73.582;2023-05-10T10:10:14;8.70;;;2.28;;
79005;SDS011;69202;45.498;-73.582;2023-05-10T10:12:41;7.30;;;2.35;;
79005;SDS011;69202;45.498;-73.582;2023-05-10T10:15:07;4.72;;;2.33;;
79005;SDS011;69202;45.498;-73.582;2023-05-10T10:17:35;6.63;;;2.58;;
79005;SDS011;69202;45.498;-73.582;2023-05-10T10:20:03;6.75;;;2.20;;
79005;SDS011;69202;45.498;-73.582;2023-05-10T10:22:29;5.55;;;1.92;;
79005;SDS011;69202;45.498;-73.582;2023-05-10T10:24:55;7.57;;;1.92;;
79005;SDS011;69202;45.498;-73.582;2023-05-10T10:27:26;5.97;;;2.40;;
79005;SDS011;69202;45.498;-73.582;2023-05-10T10:30:04;9.63;;;2.30;;
79005;SDS011;69202;45.498;-73.582;2023-05-10T10:35:21;8.50;;;2.15;;
79005;SDS011;69202;45.498;-73.582;2023-05-10T10:37:47;8.25;;;2.83;;
79005;SDS011;69202;45.498;-73.582;2023-05-10T10:40:22;4.93;;;2.33;;
79005;SDS011;69202;45.498;-73.582;2023-05-10T10:42:53;7.80;;;2.30;;
79005;SDS011;69202;45.498;-73.582;2023-05-10T10:45:19;8.10;;;2.42;;
79005;SDS011;69202;45.498;-73.582;2023-05-10T10:47:46;9.93;;;2.80;;
79005;SDS011;69202;45.498;-73.582;2023-05-10T10:50:12;4.05;;;2.22;;
79005;SDS011;69202;45.498;-73.582;2023-05-10T10:52:44;10.40;;;2.38;;
79005;SDS011;69202;45.498;-73.582;2023-05-10T10:55:12;7.72;;;1.90;;
79005;SDS011;69202;45.498;-73.582;2023-05-10T11:00:31;7.95;;;2.42;;
79005;SDS011;69202;45.498;-73.582;2023-05-10T11:03:07;7.80;;;2.23;;
79005;SDS011;69202;45.498;-73.582;2023-05-10T11:10:50;5.78;;;2.63;;
79005;SDS011;69202;45.498;-73.582;2023-05-10T11:13:32;7.15;;;2.45;;
79005;SDS011;69202;45.498;-73.582;2023-05-10T11:16:13;7.22;;;2.65;;
79005;SDS011;69202;45.498;-73.582;2023-05-10T11:18:40;5.50;;;1.73;;
79005;SDS011;69202;45.498;-73.582;2023-05-10T11:21:16;5.78;;;2.22;;
79005;SDS011;69202;45.498;-73.582;2023-05-10T11:23:49;7.95;;;2.95;;
79005;SDS011;69202;45.498;-73.582;2023-05-10T11:26:17;10.90;;;2.85;;
79005;SDS011;69202;45.498;-73.582;2023-05-10T11:28:47;13.02;;;2.38;;
79005;SDS011;69202;45.498;-73.582;2023-05-10T11:31:14;7.57;;;2.35;;
79005;SDS011;69202;45.498;-73.582;2023-05-10T11:33:49;13.00;;;2.53;;
79005;SDS011;69202;45.498;-73.582;2023-05-10T11:36:17;12.52;;;2.92;;
79005;SDS011;69202;45.498;-73.582;2023-05-10T11:38:44;13.52;;;2.60;;
79005;SDS011;69202;45.498;-73.582;2023-05-10T11:41:11;9.35;;;2.55;;
79005;SDS011;69202;45.498;-73.582;2023-05-10T11:43:41;8.82;;;2.17;;
79005;SDS011;69202;45.498;-73.582;2023-05-10T11:46:09;9.02;;;3.28;;
79005;SDS011;69202;45.498;-73.582;2023-05-10T11:48:40;9.93;;;2.80;;
79005;SDS011;69202;45.498;-73.582;2023-05-10T11:51:08;6.18;;;2.15;;
79005;SDS011;69202;45.498;-73.582;2023-05-10T11:53:35;8.85;;;2.67;;
79005;SDS011;69202;45.498;-73.582;2023-05-10T11:56:07;19.10;;;3.95;;
79005;SDS011;69202;45.498;-73.582;2023-05-10T11:58:35;11.68;;;3.30;;
79005;SDS011;69202;45.498;-73.582;2023-05-10T12:01:03;9.05;;;2.45;;
79005;SDS011;69202;45.498;-73.582;2023-05-10T12:03:30;12.02;;;2.95;;
79005;SDS011;69202;45.498;-73.582;2023-05-10T12:05:57;8.20;;;2.90;;
79005;SDS011;69202;45.498;-73.582;2023-05-10T12:08:28;11.07;;;2.80;;
79005;SDS011;69202;45.498;-73.582;2023-05-10T12:11:15;9.70;;;2.80;;
79005;SDS011;69202;45.498;-73.582;2023-05-10T12:13:42;10.35;;;2.70;;
79005;SDS011;69202;45.498;-73.582;2023-05-10T12:16:24;12.88;;;2.30;;
79005;SDS011;69202;45.498;-73.582;2023-05-10T12:18:54;14.13;;;3.65;;
79005;SDS011;69202;45.498;-73.582;2023-05-10T12:21:22;11.05;;;2.47;;
79005;SDS011;69202;45.498;-73.582;2023-05-10T12:23:49;12.35;;;3.00;;
79005;SDS011;69202;45.498;-73.582;2023-05-10T12:26:17;8.75;;;2.50;;
79005;SDS011;69202;45.498;-73.582;2023-05-10T12:28:46;13.00;;;2.80;;
79005;SDS011;69202;45.498;-73.582;2023-05-10T12:31:12;18.15;;;2.58;;
79005;SDS011;69202;45.498;-73.582;2023-05-10T12:33:42;18.60;;;2.80;;
79005;SDS011;69202;45.498;-73.582;2023-05-10T12:36:10;9.00;;;2.88;;
79005;SDS011;69202;45.498;-73.582;2023-05-10T12:38:38;10.27;;;3.08;;
79005;SDS011;69202;45.498;-73.582;2023-05-10T12:41:12;16.80;;;2.97;;
79005;SDS011;69202;45.498;-73.582;2023-05-10T12:43:39;10.98;;;2.85;;
79005;SDS011;69202;45.498;-73.582;2023-05-10T12:48:36;19.33;;;2.80;;
79005;SDS011;69202;45.498;-73.582;2023-05-10T12:51:03;13.43;;;2.50;;
79005;SDS011;69202;45.498;-73.582;2023-05-10T12:53:30;6.97;;;2.55;;
79005;SDS011;69202;45.498;-73.582;2023-05-10T12:55:56;18.45;;;2.70;;
79005;SDS011;69202;45.498;-73.582;2023-05-10T12:58:22;11.98;;;3.03;;
79005;SDS011;69202;45.498;-73.582;2023-05-10T13:00:48;12.48;;;2.58;;
79005;SDS011;69202;45.498;-73.582;2023-05-10T13:03:16;9.70;;;2.38;;
79005;SDS011;69202;45.498;-73.582;2023-05-10T13:05:42;13.70;;;2.72;;
79005;SDS011;69202;45.498;-73.582;2023-05-10T13:08:09;12.38;;;3.05;;
79005;SDS011;69202;45.498;-73.582;2023-05-10T13:10:34;18.25;;;3.40;;
79005;SDS011;69202;45.498;-73.582;2023-05-10T13:13:01;12.93;;;2.67;;
79005;SDS011;69202;45.498;-73.582;2023-05-10T13:15:27;12.32;;;2.30;;
79005;SDS011;69202;45.498;-73.582;2023-05-10T13:17:53;10.65;;;3.08;;
79005;SDS011;69202;45.498;-73.582;2023-05-10T13:20:19;8.63;;;2.40;;
79005;SDS011;69202;45.498;-73.582;2023-05-10T13:22:45;11.18;;;2.90;;
79005;SDS011;69202;45.498;-73.582;2023-05-10T13:25:12;12.52;;;2.92;;
79005;SDS011;69202;45.498;-73.582;2023-05-10T13:27:41;9.93;;;3.08;;
79005;SDS011;69202;45.498;-73.582;2023-05-10T13:30:08;13.23;;;3.08;;
79005;SDS011;69202;45.498;-73.582;2023-05-10T13:32:34;10.40;;;2.78;;
79005;SDS011;69202;45.498;-73.582;2023-05-10T13:35:01;9.05;;;2.30;;
79005;SDS011;69202;45.498;-73.582;2023-05-10T13:37:28;19.60;;;2.65;;
79005;SDS011;69202;45.498;-73.582;2023-05-10T13:39:55;18.95;;;3.25;;
79005;SDS011;69202;45.498;-73.582;2023-05-10T13:42:21;16.20;;;3.15;;
79005;SDS011;69202;45.498;-73.582;2023-05-10T13:44:48;9.75;;;2.50;;
79005;SDS011;69202;45.498;-73.582;2023-05-10T13:47:15;9.90;;;2.83;;
79005;SDS011;69202;45.498;-73.582;2023-05-10T13:49:41;14.70;;;2.90;;
79005;SDS011;69202;45.498;-73.582;2023-05-10T13:52:07;14.05;;;2.90;;
79005;SDS011;69202;45.498;-73.582;2023-05-10T13:54:35;12.65;;;2.28;;
79005;SDS011;69202;45.498;-73.582;2023-05-10T13:57:02;11.05;;;2.42;;
79005;SDS011;69202;45.498;-73.582;2023-05-10T13:59:28;9.88;;;2.30;;
79005;SDS011;69202;45.498;-73.582;2023-05-10T14:01:57;16.30;;;2.90;;
79005;SDS011;69202;45.498;-73.582;2023-05-10T14:04:23;10.02;;;2.58;;
79005;SDS011;69202;45.498;-73.582;2023-05-10T14:06:49;11.85;;;2.55;;
79005;SDS011;69202;45.498;-73.582;2023-05-10T14:09:15;9.23;;;2.28;;
79005;SDS011;69202;45.498;-73.582;2023-05-10T14:11:41;15.38;;;2.20;;
79005;SDS011;69202;45.498;-73.582;2023-05-10T14:14:11;11.50;;;2.58;;
79005;SDS011;69202;45.498;-73.582;2023-05-10T14:16:41;8.35;;;2.08;;
79005;SDS011;69202;45.498;-73.582;2023-05-10T14:19:08;14.20;;;2.22;;
79005;SDS011;69202;45.498;-73.582;2023-05-10T14:21:34;11.23;;;2.25;;
79005;SDS011;69202;45.498;-73.582;2023-05-10T14:23:59;11.40;;;2.00;;
79005;SDS011;69202;45.498;-73.582;2023-05-10T14:26:25;8.85;;;1.98;;
79005;SDS011;69202;45.498;-73.582;2023-05-10T14:28:52;11.00;;;1.92;;
79005;SDS011;69202;45.498;-73.582;2023-05-10T14:31:18;19.10;;;2.50;;
79005;SDS011;69202;45.498;-73.582;2023-05-10T14:33:48;8.68;;;1.70;;
79005;SDS011;69202;45.498;-73.582;2023-05-10T14:36:14;7.10;;;1.95;;
79005;SDS011;69202;45.498;-73.582;2023-05-10T14:38:40;8.70;;;1.70;;
79005;SDS011;69202;45.498;-73.582;2023-05-10T14:41:06;12.93;;;2.28;;
79005;SDS011;69202;45.498;-73.582;2023-05-10T14:43:32;7.00;;;2.00;;
79005;SDS011;69202;45.498;-73.582;2023-05-10T14:45:58;10.60;;;2.08;;
79005;SDS011;69202;45.498;-73.582;2023-05-10T14:48:24;11.48;;;2.17;;
79005;SDS011;69202;45.498;-73.582;2023-05-10T14:50:50;5.70;;;1.60;;
79005;SDS011;69202;45.498;-73.582;2023-05-10T14:53:17;8.55;;;2.20;;
79005;SDS011;69202;45.498;-73.582;2023-05-10T14:55:43;12.35;;;1.73;;
79005;SDS011;69202;45.498;-73.582;2023-05-10T14:58:09;7.75;;;2.00;;
79005;SDS011;69202;45.498;-73.582;2023-05-10T15:00:35;9.93;;;1.95;;